Time;durP1;ratioP1;P1;durP2;ratioP2;P2;SDS_P1;SDS_P2;PMS_P1;PMS_P2;Temp;Humidity;BMP_temperature;BMP_pressure;BME280_temperature;BME280_humidity;BME280_pressure;Samples;Min_cycle;Max_cycle;Signal;HPM_P1;HPM_P2
2023/09/11 00:01:32;;;;;;;7.70;3.27;;;;;;;18.15;73.26;95565.03;5070287;28;20710;-76
2023/09/11 00:03:58;;;;;;;8.73;3.07;;;;;;;18.15;72.91;95567.69;5051309;28;20293;-77
2023/09/11 00:06:25;;;;;;;6.60;3.30;;;;;;;18.09;73.05;95563.31;5055884;28;20298;-77
2023/09/11 00:08:53;;;;;;;5.93;3.03;;;;;;;18.06;73.45;95570.91;5051974;28;20240;-77
2023/09/11 00:11:18;;;;;;;6.63;2.90;;;;;;;17.94;73.57;95567.44;5070592;28;20244;-77
2023/09/11 00:13:44;;;;;;;6.80;3.07;;;;;;;17.99;73.80;95571.03;5068326;28;20225;-77
2023/09/11 00:16:09;;;;;;;13.63;3.03;;;;;;;17.94;73.89;95573.56;5061404;28;20236;-78
2023/09/11 00:18:35;;;;;;;5.60;2.93;;;;;;;17.84;74.07;95578.59;5071858;28;20660;-78
2023/09/11 00:21:00;;;;;;;5.47;3.00;;;;;;;17.88;74.67;95568.38;5077855;28;20246;-77
2023/09/11 00:23:26;;;;;;;7.53;2.90;;;;;;;17.92;74.31;95569.53;5071294;28;20240;-77
2023/09/11 00:25:51;;;;;;;10.53;3.20;;;;;;;17.87;74.39;95564.09;5065094;28;21305;-77
2023/09/11 00:28:17;;;;;;;6.60;2.90;;;;;;;17.93;74.34;95568.50;5053781;28;20282;-77
2023/09/11 00:30:42;;;;;;;5.93;2.90;;;;;;;17.91;74.31;95554.69;5060953;28;20224;-76
2023/09/11 00:33:08;;;;;;;7.83;3.10;;;;;;;17.87;74.53;95556.16;5057582;28;20273;-76
2023/09/11 00:35:34;;;;;;;7.47;3.17;;;;;;;17.89;74.62;95559.38;5073372;28;20247;-76
2023/09/11 00:38:00;;;;;;;6.40;3.17;;;;;;;17.89;74.49;95567.31;5056373;28;20228;-76
2023/09/11 00:40:25;;;;;;;7.60;2.90;;;;;;;17.80;74.60;95566.03;5078936;28;20255;-77
2023/09/11 00:42:51;;;;;;;8.87;3.20;;;;;;;17.77;75.19;95566.53;5069790;28;20227;-76
2023/09/11 00:45:17;;;;;;;8.60;2.83;;;;;;;17.79;74.53;95567.09;5059167;28;20798;-77
2023/09/11 00:47:44;;;;;;;7.23;3.00;;;;;;;17.77;75.59;95554.06;5056187;28;20212;-77
2023/09/11 00:50:10;;;;;;;8.57;3.10;;;;;;;17.68;75.29;95555.44;5045612;28;20228;-76
2023/09/11 00:52:35;;;;;;;9.10;3.10;;;;;;;17.70;75.67;95553.38;5052226;28;20224;-76
2023/09/11 00:55:01;;;;;;;7.60;3.30;;;;;;;17.71;75.17;95559.47;5054992;28;20233;-76
2023/09/11 00:57:26;;;;;;;8.17;3.10;;;;;;;17.64;76.14;95553.47;5062596;28;20287;-77
2023/09/11 00:59:52;;;;;;;6.00;2.80;;;;;;;17.62;75.91;95558.19;5071201;28;20244;-77
2023/09/11 01:02:17;;;;;;;5.77;2.90;;;;;;;17.61;76.27;95554.75;5050739;28;20244;-77
2023/09/11 01:04:43;;;;;;;9.57;2.80;;;;;;;17.43;76.30;95555.56;5044879;28;20263;-77
2023/09/11 01:07:09;;;;;;;7.73;3.07;;;;;;;17.34;76.89;95551.63;5060456;28;20766;-74
2023/09/11 01:09:34;;;;;;;9.30;2.90;;;;;;;17.43;76.58;95547.63;5063830;28;20249;-74
2023/09/11 01:12:00;;;;;;;6.80;2.90;;;;;;;17.48;76.66;95546.97;5045572;28;20230;-74
2023/09/11 01:14:26;;;;;;;7.63;2.90;;;;;;;17.43;76.38;95547.63;5056160;28;20661;-74
2023/09/11 01:17:07;;;;;;;7.23;2.70;;;;;;;17.38;76.91;95539.59;5070047;28;20315;-75
2023/09/11 01:19:59;;;;;;;6.20;2.50;;;;;;;17.33;77.39;95547.41;5066555;28;20232;-75
2023/09/11 01:22:42;;;;;;;6.00;2.67;;;;;;;17.37;76.58;95543.25;5060722;28;20311;-74
2023/09/11 01:25:45;;;;;;;9.27;2.90;;;;;;;17.43;77.03;95546.84;5071414;28;20237;-74
2023/09/11 01:28:29;;;;;;;7.87;2.90;;;;;;;17.36;76.56;95543.50;5079201;28;20235;-75
2023/09/11 01:30:54;;;;;;;5.43;2.80;;;;;;;17.22;77.84;95545.50;5067056;28;20635;-74
2023/09/11 01:33:20;;;;;;;9.87;2.97;;;;;;;17.21;78.06;95543.91;5041527;28;20247;-74
2023/09/11 01:35:45;;;;;;;6.83;2.80;;;;;;;17.13;78.28;95544.22;5047501;28;20232;-74
2023/09/11 01:38:11;;;;;;;7.57;2.80;;;;;;;16.96;78.84;95537.13;5050144;28;20291;-74
2023/09/11 01:40:37;;;;;;;7.43;2.77;;;;;;;16.74;80.14;95534.16;5058026;28;20802;-74
2023/09/11 01:43:02;;;;;;;7.10;2.73;;;;;;;16.80;80.08;95525.31;5066023;28;20695;-74
2023/09/11 01:45:29;;;;;;;5.83;2.80;;;;;;;16.87;79.69;95541.91;5056751;28;20235;-74
2023/09/11 01:47:54;;;;;;;3.97;2.57;;;;;;;16.87;79.72;95541.09;5071427;28;20239;-74
2023/09/11 01:50:20;;;;;;;9.53;3.07;;;;;;;16.83;80.01;95538.91;5056034;28;20224;-74
2023/09/11 01:52:46;;;;;;;8.07;2.80;;;;;;;16.56;81.28;95539.44;5068894;28;20231;-74
2023/09/11 01:55:12;;;;;;;7.77;2.70;;;;;;;16.69;81.49;95534.03;5069819;28;20227;-75
2023/09/11 01:57:37;;;;;;;5.80;2.40;;;;;;;16.84;80.37;95539.69;5058615;28;20242;-74
2023/09/11 02:00:05;;;;;;;7.57;2.70;;;;;;;16.59;81.01;95534.53;5064617;28;20225;-74
2023/09/11 02:02:30;;;;;;;4.33;2.63;;;;;;;16.59;81.41;95544.28;5053844;28;20710;-74
2023/09/11 02:04:56;;;;;;;5.93;2.80;;;;;;;16.47;81.89;95541.56;5068751;28;20242;-73
2023/09/11 02:07:21;;;;;;;4.87;2.60;;;;;;;16.39;82.10;95546.31;5047432;28;20233;-73
2023/09/11 02:09:47;;;;;;;7.20;2.60;;;;;;;16.53;81.94;95535.41;5069299;28;20299;-73
2023/09/11 02:12:13;;;;;;;5.63;2.63;;;;;;;16.50;81.60;95538.44;5025293;28;20328;-70
2023/09/11 02:14:38;;;;;;;7.10;2.77;;;;;;;16.50;81.70;95532.38;5051824;28;20294;-73
2023/09/11 02:17:04;;;;;;;4.80;2.67;;;;;;;16.41;81.74;95533.69;5071075;28;20284;-73
2023/09/11 02:19:30;;;;;;;7.73;2.93;;;;;;;16.52;80.85;95533.81;5066632;28;20229;-73
2023/09/11 02:21:56;;;;;;;5.40;2.70;;;;;;;16.49;81.06;95536.03;5043282;28;20239;-74
2023/09/11 02:24:24;;;;;;;4.63;2.47;;;;;;;16.43;81.71;95531.66;5030916;28;20231;-73
2023/09/11 02:26:50;;;;;;;5.93;2.80;;;;;;;16.53;81.29;95530.13;5062257;28;20741;-73
2023/09/11 02:29:15;;;;;;;6.13;2.80;;;;;;;16.40;81.62;95527.63;5063070;28;20233;-73
2023/09/11 02:31:41;;;;;;;8.27;2.70;;;;;;;16.26;82.16;95526.16;5043700;28;20257;-74
2023/09/11 02:34:06;;;;;;;5.63;2.63;;;;;;;16.26;82.23;95528.78;5054185;28;20615;-74
2023/09/11 02:36:32;;;;;;;6.03;2.70;;;;;;;16.28;82.08;95524.09;5067882;28;20612;-74
2023/09/11 02:38:57;;;;;;;5.47;2.70;;;;;;;16.29;81.94;95527.53;5066564;28;20228;-74
2023/09/11 02:41:23;;;;;;;5.87;2.87;;;;;;;16.24;81.79;95517.59;5047148;28;20228;-74
2023/09/11 02:43:48;;;;;;;8.03;2.83;;;;;;;16.21;82.23;95522.53;5052257;28;20292;-74
2023/09/11 02:46:14;;;;;;;6.80;2.80;;;;;;;16.18;82.62;95521.13;5053163;28;20223;-74
2023/09/11 02:48:47;;;;;;;8.37;2.83;;;;;;;16.19;82.10;95520.13;5067673;28;20285;-74
2023/09/11 02:51:14;;;;;;;5.57;2.77;;;;;;;16.05;83.36;95516.78;5059642;28;20327;-74
2023/09/11 02:53:39;;;;;;;7.07;2.83;;;;;;;15.78;83.97;95518.09;5033848;28;20223;-74
2023/09/11 02:56:05;;;;;;;8.40;2.83;;;;;;;16.02;83.31;95516.44;5064453;28;20233;-74
2023/09/11 02:58:30;;;;;;;6.20;2.97;;;;;;;16.06;82.90;95520.25;5068888;28;20224;-73
2023/09/11 03:01:03;;;;;;;5.40;2.87;;;;;;;15.87;83.88;95522.06;5066821;28;20229;-74
2023/09/11 03:03:29;;;;;;;7.93;2.77;;;;;;;15.99;83.51;95522.16;5058433;28;20287;-74
2023/09/11 03:05:58;;;;;;;7.83;2.80;;;;;;;15.82;84.22;95513.16;5067338;28;20232;-74
2023/09/11 03:08:24;;;;;;;4.87;2.53;;;;;;;15.85;84.00;95516.19;5064333;28;20236;-74
2023/09/11 03:10:49;;;;;;;6.67;2.90;;;;;;;15.64;84.80;95519.22;5051541;28;20234;-74
2023/09/11 03:13:15;;;;;;;6.10;2.80;;;;;;;15.65;85.32;95520.81;5062894;28;20237;-74
2023/09/11 03:15:42;;;;;;;8.33;2.70;;;;;;;15.67;85.08;95510.84;5066832;28;20251;-74
2023/09/11 03:18:08;;;;;;;4.60;2.80;;;;;;;15.77;84.95;95516.44;5067875;28;20300;-74
2023/09/11 03:20:33;;;;;;;6.73;2.90;;;;;;;15.51;85.31;95511.41;5061275;28;20238;-75
2023/09/11 03:22:59;;;;;;;5.47;2.77;;;;;;;15.47;86.50;95528.69;5068637;28;20239;-74
2023/09/11 03:25:26;;;;;;;4.83;2.77;;;;;;;15.64;85.79;95519.22;5039596;28;20267;-74
2023/09/11 03:27:52;;;;;;;4.33;2.63;;;;;;;15.49;86.04;95518.72;5053526;28;20330;-74
2023/09/11 03:30:17;;;;;;;6.17;2.97;;;;;;;15.64;85.76;95518.41;5031370;28;20229;-72
2023/09/11 03:32:43;;;;;;;7.17;2.83;;;;;;;15.61;85.43;95519.66;5046171;28;20855;-73
2023/09/11 03:35:08;;;;;;;5.03;2.47;;;;;;;15.36;86.72;95524.88;5066077;28;20282;-75
2023/09/11 03:37:34;;;;;;;6.90;2.60;;;;;;;15.53;86.31;95522.53;5059769;28;20217;-73
2023/09/11 03:39:59;;;;;;;5.50;2.70;;;;;;;15.56;85.77;95527.41;5064899;28;20727;-74
2023/09/11 03:42:25;;;;;;;7.23;2.70;;;;;;;15.48;86.45;95527.66;5059850;28;20676;-73
2023/09/11 03:44:50;;;;;;;7.77;2.70;;;;;;;15.25;87.41;95524.75;5026490;28;20631;-75
2023/09/11 03:47:16;;;;;;;8.23;3.00;;;;;;;15.06;88.72;95525.69;5051614;28;20248;-73
2023/09/11 03:49:41;;;;;;;7.40;2.70;;;;;;;15.00;89.09;95516.00;5061498;28;20236;-72
2023/09/11 03:52:07;;;;;;;6.83;2.93;;;;;;;15.02;88.98;95521.88;5065885;28;20236;-72
2023/09/11 03:54:32;;;;;;;11.20;2.97;;;;;;;15.00;89.43;95521.28;5047282;28;20746;-73
2023/09/11 03:56:58;;;;;;;7.90;2.80;;;;;;;14.83;90.15;95527.00;5067480;28;20749;-73
2023/09/11 03:59:23;;;;;;;6.67;3.03;;;;;;;14.90;89.98;95527.00;5055311;28;20231;-73
2023/09/11 04:01:48;;;;;;;7.87;2.73;;;;;;;14.98;89.51;95528.56;5073008;28;20236;-73
2023/09/11 04:04:14;;;;;;;5.97;2.70;;;;;;;15.06;89.06;95528.31;5052683;28;20792;-74
2023/09/11 04:06:40;;;;;;;9.07;2.90;;;;;;;14.97;89.30;95538.31;5071176;28;20229;-73
2023/09/11 04:09:05;;;;;;;5.80;2.70;;;;;;;15.00;89.15;95539.72;5036384;28;20286;-73
2023/09/11 04:11:31;;;;;;;7.47;2.80;;;;;;;15.19;88.54;95531.66;5029717;28;20305;-74
2023/09/11 04:14:00;;;;;;;7.80;2.70;;;;;;;15.28;87.60;95535.69;5034457;28;20240;-73
2023/09/11 04:16:25;;;;;;;5.33;2.70;;;;;;;15.24;87.95;95533.66;5070455;28;20225;-73
2023/09/11 04:18:51;;;;;;;4.53;2.60;;;;;;;15.10;89.26;95540.06;5045317;28;20232;-74
2023/09/11 04:21:16;;;;;;;7.33;3.10;;;;;;;15.31;87.65;95535.25;5047476;28;21261;-73
2023/09/11 04:23:42;;;;;;;9.83;3.10;;;;;;;15.18;88.49;95531.91;5060274;28;20295;-74
2023/09/11 04:26:26;;;;;;;6.57;3.07;;;;;;;15.27;87.96;95538.53;5053430;28;20621;-74
2023/09/11 04:28:51;;;;;;;14.53;3.60;;;;;;;15.15;88.35;95538.41;5066783;28;20225;-73
2023/09/11 04:31:17;;;;;;;9.73;3.50;;;;;;;15.08;89.03;95539.47;5026265;28;20246;-74
2023/09/11 04:33:42;;;;;;;5.57;3.20;;;;;;;15.36;88.76;95540.69;5071005;28;20230;-74
2023/09/11 04:36:08;;;;;;;7.83;3.10;;;;;;;15.13;88.97;95547.53;5072822;28;20314;-74
2023/09/11 04:38:33;;;;;;;8.43;3.20;;;;;;;15.31;88.04;95543.16;5038954;28;20226;-73
2023/09/11 04:40:59;;;;;;;10.60;3.57;;;;;;;15.33;88.17;95546.38;5062673;28;20225;-73
2023/09/11 04:43:24;;;;;;;9.13;3.20;;;;;;;15.46;87.83;95542.88;5070163;28;20251;-74
2023/09/11 04:45:50;;;;;;;6.97;3.03;;;;;;;15.45;87.25;95547.34;5040742;28;20220;-73
2023/09/11 04:48:15;;;;;;;10.70;3.60;;;;;;;15.62;86.46;95539.72;5053878;28;20304;-74
2023/09/11 04:50:41;;;;;;;9.27;3.60;;;;;;;15.64;86.03;95548.25;5068848;28;20239;-73
2023/09/11 04:53:06;;;;;;;6.43;3.20;;;;;;;15.69;85.95;95551.03;5035841;28;20277;-74
2023/09/11 04:55:32;;;;;;;8.03;3.40;;;;;;;15.72;85.99;95547.97;5035297;28;20234;-74
2023/09/11 04:57:57;;;;;;;14.10;3.20;;;;;;;15.81;85.53;95551.16;5064085;28;20233;-73
2023/09/11 05:00:24;;;;;;;9.60;3.20;;;;;;;15.79;85.00;95548.72;5051326;28;20248;-73
2023/09/11 05:02:50;;;;;;;5.90;3.00;;;;;;;15.95;84.80;95542.09;5056143;28;20613;-73
2023/09/11 05:05:15;;;;;;;10.33;3.10;;;;;;;15.70;85.83;95539.47;5051128;28;20324;-74
2023/09/11 05:07:41;;;;;;;9.63;3.00;;;;;;;15.84;85.99;95540.97;5064338;28;20225;-74
2023/09/11 05:10:08;;;;;;;8.43;3.10;;;;;;;15.83;85.76;95539.38;5064362;28;20239;-75
2023/09/11 05:12:33;;;;;;;5.63;2.87;;;;;;;15.64;86.56;95542.16;5042447;28;20251;-74
2023/09/11 05:14:59;;;;;;;6.63;2.90;;;;;;;15.73;85.59;95539.03;5054510;28;20579;-73
2023/09/11 05:17:24;;;;;;;10.83;2.90;;;;;;;15.75;85.75;95533.53;5053210;28;20781;-74
2023/09/11 05:19:50;;;;;;;5.50;2.60;;;;;;;15.87;84.92;95540.53;5048147;28;20237;-73
2023/09/11 05:22:15;;;;;;;4.97;2.93;;;;;;;16.08;83.93;95534.84;5060216;28;20240;-74
2023/09/11 05:24:41;;;;;;;3.90;2.80;;;;;;;15.93;84.71;95534.38;5055715;28;20222;-74
2023/09/11 05:27:06;;;;;;;7.27;2.77;;;;;;;15.93;84.97;95539.66;5062099;28;20240;-75
2023/09/11 05:29:32;;;;;;;5.17;2.80;;;;;;;16.13;84.60;95529.72;5068379;28;20233;-74
2023/09/11 05:31:57;;;;;;;6.47;3.27;;;;;;;16.25;83.57;95540.38;5057598;28;20235;-74
2023/09/11 05:34:22;;;;;;;8.73;3.20;;;;;;;16.22;83.11;95537.34;5068544;28;20221;-73
2023/09/11 05:36:48;;;;;;;8.30;3.23;;;;;;;16.43;82.66;95529.78;5044803;28;20239;-73
2023/09/11 05:39:13;;;;;;;7.43;3.30;;;;;;;16.37;83.09;95535.97;5039310;28;20232;-73
2023/09/11 05:41:39;;;;;;;6.60;2.97;;;;;;;16.29;83.30;95533.59;5036901;28;20217;-73
2023/09/11 05:44:04;;;;;;;9.70;3.23;;;;;;;16.35;83.92;95537.22;5050669;28;20245;-73
2023/09/11 05:46:30;;;;;;;11.10;3.20;;;;;;;16.48;82.30;95535.22;5037946;28;20260;-73
2023/09/11 05:48:55;;;;;;;9.20;2.93;;;;;;;16.62;82.00;95535.94;5038506;28;20234;-73
2023/09/11 05:51:21;;;;;;;7.50;3.07;;;;;;;16.66;81.66;95542.38;5048522;28;20236;-73
2023/09/11 05:53:46;;;;;;;9.37;3.50;;;;;;;16.74;80.59;95531.53;5064516;28;20304;-73
2023/09/11 05:56:12;;;;;;;6.43;3.20;;;;;;;16.80;80.48;95538.53;5053564;28;20236;-75
2023/09/11 05:58:37;;;;;;;7.93;3.50;;;;;;;16.83;79.93;95530.19;5075404;28;20232;-73
2023/09/11 06:01:03;;;;;;;8.70;3.47;;;;;;;16.88;80.14;95532.97;5045185;28;20240;-73
2023/09/11 06:03:30;;;;;;;9.77;3.37;;;;;;;16.95;80.64;95532.88;5050131;28;20929;-73
2023/09/11 06:05:55;;;;;;;11.20;3.73;;;;;;;16.92;79.92;95528.03;5034719;28;20229;-73
2023/09/11 06:08:20;;;;;;;14.70;3.63;;;;;;;16.99;80.30;95531.38;5046753;28;20224;-75
2023/09/11 06:10:46;;;;;;;8.07;3.60;;;;;;;17.12;79.75;95532.03;5057308;28;20243;-73
2023/09/11 06:13:11;;;;;;;9.60;3.50;;;;;;;17.14;79.96;95531.78;5049645;28;20245;-74
2023/09/11 06:15:37;;;;;;;11.33;3.23;;;;;;;17.19;78.38;95540.69;5070431;28;20318;-73
2023/09/11 06:18:03;;;;;;;7.60;3.67;;;;;;;17.26;77.58;95541.41;5068147;28;20228;-73
2023/09/11 06:20:29;;;;;;;6.97;3.57;;;;;;;17.31;77.37;95544.19;5060782;28;20236;-73
2023/09/11 06:22:55;;;;;;;13.60;3.60;;;;;;;17.41;77.43;95541.75;5037526;28;20634;-73
2023/09/11 06:25:21;;;;;;;10.03;3.60;;;;;;;17.48;77.37;95541.69;5072180;28;20319;-74
2023/09/11 06:27:47;;;;;;;13.00;4.10;;;;;;;17.42;76.86;95540.75;5067575;28;20232;-73
2023/09/11 06:30:13;;;;;;;11.53;3.67;;;;;;;17.39;77.24;95548.31;5029442;28;20453;-74
2023/09/11 06:32:38;;;;;;;8.53;3.57;;;;;;;17.53;76.38;95554.28;5062751;28;20233;-73
2023/09/11 06:35:07;;;;;;;9.10;3.70;;;;;;;17.46;77.59;95544.53;5065570;28;20227;-73
2023/09/11 06:37:32;;;;;;;8.77;3.43;;;;;;;17.53;77.33;95548.97;5053679;28;20234;-73
2023/09/11 06:39:58;;;;;;;10.93;3.80;;;;;;;17.66;76.60;95551.41;5056454;28;20251;-73
2023/09/11 06:42:24;;;;;;;5.47;3.07;;;;;;;17.66;76.11;95554.88;5047804;28;20274;-73
2023/09/11 06:44:53;;;;;;;9.40;3.23;;;;;;;17.67;75.70;95545.09;5062173;28;20224;-73
2023/09/11 06:47:19;;;;;;;6.83;3.10;;;;;;;17.96;74.54;95552.16;5058474;28;20757;-73
2023/09/11 06:49:44;;;;;;;9.30;3.30;;;;;;;18.00;75.06;95550.66;5052439;28;20280;-73
2023/09/11 06:52:09;;;;;;;8.83;3.20;;;;;;;18.08;74.12;95547.63;5063441;28;20237;-73
2023/09/11 06:54:35;;;;;;;9.57;3.37;;;;;;;18.19;73.28;95552.16;5070484;28;20325;-73
2023/09/11 06:57:04;;;;;;;9.10;3.10;;;;;;;18.21;73.66;95552.72;5064460;28;20229;-73
2023/09/11 06:59:29;;;;;;;5.50;2.90;;;;;;;18.08;72.73;95550.28;5027729;28;20223;-73
2023/09/11 07:01:55;;;;;;;8.63;3.30;;;;;;;18.05;73.76;95537.53;5065533;28;20298;-74
2023/09/11 07:04:20;;;;;;;9.07;3.20;;;;;;;18.24;73.31;95544.31;5063211;28;20744;-74
2023/09/11 07:06:46;;;;;;;11.17;3.20;;;;;;;18.36;72.85;95547.78;5052487;28;20233;-73
2023/09/11 07:09:11;;;;;;;8.90;3.00;;;;;;;18.41;72.75;95544.41;5064267;28;20228;-74
2023/09/11 07:11:37;;;;;;;8.80;3.10;;;;;;;18.38;73.17;95545.69;5067336;28;20722;-75
2023/09/11 07:14:05;;;;;;;7.17;3.00;;;;;;;18.45;72.22;95540.25;5057048;28;20279;-74
2023/09/11 07:16:31;;;;;;;9.47;3.30;;;;;;;18.61;71.74;95534.25;5060179;28;20320;-73
2023/09/11 07:18:56;;;;;;;10.13;2.97;;;;;;;18.69;71.08;95537.38;5028509;28;20793;-74
2023/09/11 07:21:22;;;;;;;9.50;3.03;;;;;;;18.73;71.00;95537.69;5034146;28;20236;-74
2023/09/11 07:23:47;;;;;;;9.10;3.20;;;;;;;18.72;70.53;95536.09;5073979;28;20278;-74
2023/09/11 07:26:13;;;;;;;8.40;3.30;;;;;;;18.89;70.68;95533.50;5029828;28;20244;-74
2023/09/11 07:28:58;;;;;;;7.40;3.20;;;;;;;19.03;69.21;95533.00;5040324;28;20377;-73
2023/09/11 07:31:24;;;;;;;8.07;3.30;;;;;;;19.21;69.36;95531.97;5072608;28;20235;-74
2023/09/11 07:33:49;;;;;;;9.10;3.50;;;;;;;19.18;69.19;95525.28;5056811;28;20255;-74
2023/09/11 07:36:16;;;;;;;6.90;3.27;;;;;;;19.30;68.10;95531.34;5050421;28;20229;-73
2023/09/11 07:38:44;;;;;;;7.10;3.00;;;;;;;19.39;68.00;95543.22;5052563;28;20230;-73
2023/09/11 07:41:17;;;;;;;8.10;3.10;;;;;;;19.45;68.38;95536.97;5057394;28;20259;-74
2023/09/11 07:43:46;;;;;;;15.13;3.60;;;;;;;19.43;67.86;95536.41;5057398;28;20244;-74
2023/09/11 07:46:11;;;;;;;9.57;3.23;;;;;;;19.57;66.58;95534.25;5039681;28;20240;-75
2023/09/11 07:48:37;;;;;;;13.30;3.90;;;;;;;19.72;66.60;95531.84;5068613;28;20240;-73
2023/09/11 07:51:03;;;;;;;10.67;3.43;;;;;;;19.66;66.93;95532.81;5060988;28;20237;-74
2023/09/11 07:53:28;;;;;;;12.17;3.20;;;;;;;19.79;65.92;95527.19;5043291;28;20225;-74
2023/09/11 07:55:54;;;;;;;7.47;3.27;;;;;;;19.83;65.69;95523.00;5053266;28;20231;-73
2023/09/11 07:58:19;;;;;;;7.40;3.10;;;;;;;19.99;65.11;95526.72;5055345;28;20309;-74
2023/09/11 08:00:45;;;;;;;6.83;3.33;;;;;;;19.99;64.57;95527.47;5071533;28;20241;-74
2023/09/11 08:03:10;;;;;;;8.93;3.60;;;;;;;20.05;64.94;95529.19;5043339;28;20307;-74
2023/09/11 08:05:36;;;;;;;10.53;3.37;;;;;;;20.22;63.55;95520.38;5066130;28;20230;-73
2023/09/11 08:08:02;;;;;;;8.77;3.20;;;;;;;20.30;62.90;95523.44;5076044;28;20232;-73
2023/09/11 08:10:28;;;;;;;11.37;3.30;;;;;;;20.21;62.54;95516.09;5057133;28;20233;-73
2023/09/11 08:12:54;;;;;;;7.60;3.43;;;;;;;20.45;61.32;95517.53;5069111;28;20385;-73
2023/09/11 08:15:19;;;;;;;12.77;3.40;;;;;;;20.60;59.17;95517.75;5073657;28;20236;-74
2023/09/11 08:17:45;;;;;;;8.50;3.60;;;;;;;20.53;59.01;95517.13;5052790;28;20259;-74
2023/09/11 08:20:11;;;;;;;11.63;3.80;;;;;;;20.73;58.40;95518.16;5066992;28;20274;-74
2023/09/11 08:22:37;;;;;;;9.20;3.87;;;;;;;20.79;59.09;95513.72;5075351;28;20287;-74
2023/09/11 08:25:02;;;;;;;10.50;3.50;;;;;;;20.72;58.90;95513.09;5067649;28;20249;-74
2023/09/11 08:27:28;;;;;;;9.60;3.40;;;;;;;20.81;58.24;95509.75;5048262;28;20233;-73
2023/09/11 08:29:55;;;;;;;8.57;3.50;;;;;;;20.88;58.80;95500.75;5071121;28;20318;-74
2023/09/11 08:32:21;;;;;;;6.23;3.33;;;;;;;20.90;58.77;95496.03;5072378;28;20315;-73
2023/09/11 08:34:46;;;;;;;10.47;3.60;;;;;;;20.99;57.59;95502.50;5047880;28;20227;-74
2023/09/11 08:37:12;;;;;;;12.60;3.60;;;;;;;21.21;56.87;95497.97;5064174;28;20232;-74
2023/09/11 08:39:37;;;;;;;12.37;3.70;;;;;;;21.42;54.82;95495.25;5067183;28;20233;-74
2023/09/11 08:42:03;;;;;;;8.37;3.40;;;;;;;21.49;55.14;95500.38;5040366;28;20240;-74
2023/09/11 08:44:28;;;;;;;7.33;3.37;;;;;;;21.59;55.78;95502.34;5061728;28;20741;-73
2023/09/11 08:46:55;;;;;;;10.20;3.87;;;;;;;21.78;53.67;95496.34;5065114;28;20240;-74
2023/09/11 08:49:21;;;;;;;10.07;3.50;;;;;;;21.90;54.25;95497.00;5047613;28;20668;-74
2023/09/11 08:51:51;;;;;;;10.17;3.83;;;;;;;21.93;54.24;95490.34;5054699;28;20229;-73
2023/09/11 08:54:17;;;;;;;10.73;3.80;;;;;;;21.99;53.79;95494.69;5070797;28;20246;-74
2023/09/11 08:56:42;;;;;;;8.47;3.90;;;;;;;21.99;53.80;95490.16;5054308;28;20788;-73
2023/09/11 08:59:10;;;;;;;7.97;3.80;;;;;;;22.25;53.09;95488.44;5053231;28;20327;-74
2023/09/11 09:01:35;;;;;;;10.73;3.83;;;;;;;22.38;51.97;95495.19;5049375;28;20235;-74
2023/09/11 09:04:00;;;;;;;9.13;4.03;;;;;;;22.49;51.64;95489.66;5064334;28;20234;-73
2023/09/11 09:06:27;;;;;;;7.43;3.70;;;;;;;22.59;51.63;95488.88;5058555;28;20237;-74
2023/09/11 09:08:52;;;;;;;13.47;4.20;;;;;;;22.50;52.95;95483.22;5048497;28;20228;-74
2023/09/11 09:11:19;;;;;;;14.07;3.97;;;;;;;22.70;51.54;95487.88;5055118;28;20778;-74
2023/09/11 09:13:44;;;;;;;10.83;4.00;;;;;;;22.88;50.38;95491.97;5050285;28;20931;-74
2023/09/11 09:16:10;;;;;;;11.95;4.20;;;;;;;22.84;51.15;95482.84;5037613;28;20244;-74
2023/09/11 09:18:35;;;;;;;9.60;4.40;;;;;;;22.83;51.10;95474.06;5048018;28;20255;-73
2023/09/11 09:21:01;;;;;;;14.10;3.95;;;;;;;22.88;51.42;95473.28;5069429;28;20235;-74
2023/09/11 09:23:35;;;;;;;9.20;4.00;;;;;;;22.95;50.83;95465.81;5067838;28;20679;-74
2023/09/11 09:26:07;;;;;;;11.30;3.90;;;;;;;23.01;50.97;95470.91;5067575;28;20242;-74
2023/09/11 09:28:33;;;;;;;9.18;3.83;;;;;;;23.06;50.78;95467.44;5044655;28;20263;-74
2023/09/11 09:30:59;;;;;;;11.40;3.83;;;;;;;23.12;50.46;95466.41;5046501;28;20314;-74
2023/09/11 09:33:25;;;;;;;6.97;3.70;;;;;;;23.18;50.52;95457.31;5049767;28;20254;-74
2023/09/11 09:35:50;;;;;;;9.65;3.78;;;;;;;23.29;50.75;95462.41;5056642;28;20950;-74
2023/09/11 09:38:19;;;;;;;7.85;3.97;;;;;;;23.37;50.75;95461.13;5036208;28;20240;-73
2023/09/11 09:40:44;;;;;;;13.02;4.07;;;;;;;23.37;50.41;95456.59;5063706;28;20228;-74
2023/09/11 09:43:15;;;;;;;8.95;3.97;;;;;;;23.39;49.58;95458.97;5035200;28;20236;-74
2023/09/11 09:45:42;;;;;;;11.20;3.70;;;;;;;23.39;49.82;95457.13;5051827;28;20331;-74
2023/09/11 09:48:12;;;;;;;9.23;3.63;;;;;;;23.47;49.62;95458.47;5065419;28;20311;-74
2023/09/11 09:50:49;;;;;;;11.50;3.70;;;;;;;23.58;48.52;95452.03;5064243;28;20332;-74
2023/09/11 09:53:21;;;;;;;8.20;3.70;;;;;;;23.63;48.11;95446.69;5071107;28;20232;-74
2023/09/11 09:55:47;;;;;;;9.52;3.78;;;;;;;23.77;48.00;95444.28;5063525;28;20229;-74
2023/09/11 09:58:12;;;;;;;6.18;3.70;;;;;;;23.72;48.79;95446.94;5047720;28;20318;-75
2023/09/11 10:00:38;;;;;;;9.82;3.85;;;;;;;23.80;48.13;95441.88;5038079;28;20224;-74
2023/09/11 10:03:03;;;;;;;9.23;3.90;;;;;;;23.76;48.66;95432.81;5064303;28;20270;-73
2023/09/11 10:05:29;;;;;;;12.13;3.95;;;;;;;23.73;48.47;95430.66;5058141;28;20232;-74
2023/09/11 10:07:58;;;;;;;8.00;3.90;;;;;;;23.70;49.34;95420.50;5046712;28;20225;-73
2023/09/11 10:10:25;;;;;;;8.68;3.90;;;;;;;24.01;47.83;95434.63;5048322;28;20229;-73
2023/09/11 10:12:53;;;;;;;9.20;3.75;;;;;;;24.17;46.80;95419.38;5055835;28;20226;-74
2023/09/11 10:15:19;;;;;;;7.55;3.67;;;;;;;24.11;48.44;95426.59;5053854;28;20276;-74
2023/09/11 10:17:45;;;;;;;7.90;3.88;;;;;;;24.28;47.29;95424.44;5048559;28;20221;-74
2023/09/11 10:20:11;;;;;;;7.78;3.67;;;;;;;24.31;46.69;95431.09;5064580;28;20251;-74
2023/09/11 10:22:36;;;;;;;9.43;3.45;;;;;;;24.31;46.40;95417.72;5060933;28;20249;-73
2023/09/11 10:25:02;;;;;;;9.90;3.85;;;;;;;24.31;46.70;95417.72;5063995;28;20239;-75
2023/09/11 10:27:27;;;;;;;7.05;3.80;;;;;;;24.45;46.82;95410.72;5070042;28;20224;-74
2023/09/11 10:30:04;;;;;;;13.52;3.90;;;;;;;24.57;47.44;95411.19;5052679;28;20229;-78
2023/09/11 10:32:45;;;;;;;11.13;4.20;;;;;;;24.52;45.13;95405.88;5037080;28;20310;-78
2023/09/11 10:35:10;;;;;;;10.45;3.90;;;;;;;24.61;45.49;95401.53;5036454;28;20285;-78
2023/09/11 10:37:36;;;;;;;8.30;3.80;;;;;;;24.60;43.69;95414.13;5042234;28;20217;-78
2023/09/11 10:40:03;;;;;;;7.40;3.60;;;;;;;24.68;43.24;95400.16;5057258;28;20217;-77
2023/09/11 10:42:29;;;;;;;8.98;3.60;;;;;;;24.68;43.01;95402.03;5032979;28;20305;-80
2023/09/11 10:44:54;;;;;;;9.20;3.80;;;;;;;24.77;42.92;95397.72;5054256;28;20323;-78
2023/09/11 10:47:20;;;;;;;9.07;3.75;;;;;;;24.86;44.23;95393.41;5035818;28;20231;-77
2023/09/11 10:49:45;;;;;;;7.85;3.72;;;;;;;25.05;43.63;95393.56;5060790;28;20729;-78
2023/09/11 10:52:10;;;;;;;8.65;3.72;;;;;;;25.10;43.47;95390.84;5051949;28;20256;-77
2023/09/11 10:54:36;;;;;;;7.20;3.80;;;;;;;25.24;43.28;95384.56;5070731;28;20689;-79
2023/09/11 10:57:01;;;;;;;16.30;6.45;;;;;;;25.29;43.49;95379.16;5058381;28;20228;-78
2023/09/11 10:59:27;;;;;;;13.43;4.13;;;;;;;25.46;43.47;95380.69;5071499;28;20594;-78
2023/09/11 11:01:53;;;;;;;8.43;3.50;;;;;;;25.62;41.95;95382.97;5074123;28;20239;-78
2023/09/11 11:04:18;;;;;;;8.68;3.85;;;;;;;25.62;41.85;95382.16;5054439;28;20228;-78
2023/09/11 11:06:45;;;;;;;7.50;3.50;;;;;;;25.67;41.84;95384.78;5072325;28;20228;-77
2023/09/11 11:09:32;;;;;;;7.30;3.50;;;;;;;25.66;41.37;95372.44;5058820;28;20259;-78
2023/09/11 11:12:08;;;;;;;8.30;3.85;;;;;;;25.64;40.33;95380.78;5074689;28;20249;-77
2023/09/11 11:14:34;;;;;;;8.80;3.65;;;;;;;25.78;40.80;95376.34;5049716;28;20310;-77
2023/09/11 11:17:04;;;;;;;12.15;3.50;;;;;;;25.79;40.99;95364.56;5065476;28;20294;-77
2023/09/11 11:19:31;;;;;;;9.85;3.60;;;;;;;25.74;39.07;95377.22;5067987;28;20311;-78
2023/09/11 11:21:57;;;;;;;6.68;3.58;;;;;;;25.78;40.23;95365.63;5075944;28;20297;-77
2023/09/11 11:24:24;;;;;;;8.30;3.60;;;;;;;25.69;40.66;95364.66;5059040;28;20219;-77
2023/09/11 11:26:52;;;;;;;7.57;3.78;;;;;;;25.83;40.49;95357.53;5074066;28;20228;-78
2023/09/11 11:29:18;;;;;;;6.53;3.72;;;;;;;25.93;41.00;95362.00;5052334;28;20243;-77